Cape Wrath, United Kingdom
Current Conditions -  °F | °C
As of 1:20 PM on Thursday 18 Dec 2014 (Local Time) from EGPO Reporting Station
Rain Showers Rain Showers  
Wind Chill: 35°   Ceiling: 2600
Heat Index: 43°   Visibility: 6mi
Dew Point: 37°   Wind: 18mph
Humidity: 81%   Direction: 250°WSW
Pressure: 29.21"   Gusts: NA
Location:  58.83°N, 5.33°W
Report Text: EGPO 181320Z 25016KT 9999 VCSH FEW015TCU BKN026 06/03 Q0989
Loading
Personal Weather Stations






























Interactive Weather Map New forecast layout! Learn more

10-Day Weather Forecast

Advertisements
Track Severe Weather on mobile